sensor_id;sensor_type;location;lat;lon;timestamp;pressure;altitude;pressure_sealevel;temperature;humidity
20145;BME280;10233;50.814;6.590;2023-04-26T00:00:33;100531.03;;;6.22;100.00
20145;BME280;10233;50.814;6.590;2023-04-26T00:01:35;100527.91;;;6.18;100.00
20145;BME280;10233;50.814;6.590;2023-04-26T00:02:35;100534.84;;;6.19;100.00
20145;BME280;10233;50.814;6.590;2023-04-26T00:03:36;100536.19;;;6.15;100.00
20145;BME280;10233;50.814;6.590;2023-04-26T00:04:39;100526.94;;;6.19;100.00
20145;BME280;10233;50.814;6.590;2023-04-26T00:05:40;100530.59;;;6.10;100.00
20145;BME280;10233;50.814;6.590;2023-04-26T00:06:41;100528.59;;;6.12;100.00
20145;BME280;10233;50.814;6.590;2023-04-26T00:07:42;100528.75;;;6.11;100.00
20145;BME280;10233;50.814;6.590;2023-04-26T00:08:42;100531.91;;;6.06;100.00
20145;BME280;10233;50.814;6.590;2023-04-26T00:09:43;100527.13;;;6.10;100.00
20145;BME280;10233;50.814;6.590;2023-04-26T00:10:44;100521.34;;;6.06;100.00
20145;BME280;10233;50.814;6.590;2023-04-26T00:11:45;100525.94;;;6.04;100.00
20145;BME280;10233;50.814;6.590;2023-04-26T00:12:45;100521.34;;;6.06;100.00
20145;BME280;10233;50.814;6.590;2023-04-26T00:13:46;100530.25;;;6.05;100.00
20145;BME280;10233;50.814;6.590;2023-04-26T00:14:46;100528.28;;;6.07;100.00
20145;BME280;10233;50.814;6.590;2023-04-26T00:15:47;100523.84;;;6.08;100.00
20145;BME280;10233;50.814;6.590;2023-04-26T00:16:47;100527.63;;;6.05;100.00
20145;BME280;10233;50.814;6.590;2023-04-26T00:17:48;100530.25;;;6.05;100.00
20145;BME280;10233;50.814;6.590;2023-04-26T00:18:49;100523.50;;;6.03;100.00
20145;BME280;10233;50.814;6.590;2023-04-26T00:19:50;100525.94;;;6.04;100.00
20145;BME280;10233;50.814;6.590;2023-04-26T00:20:51;100523.31;;;6.04;100.00
20145;BME280;10233;50.814;6.590;2023-04-26T00:21:51;100527.78;;;6.04;100.00
20145;BME280;10233;50.814;6.590;2023-04-26T00:22:52;100528.28;;;6.07;100.00
20145;BME280;10233;50.814;6.590;2023-04-26T00:23:52;100524.00;;;6.06;100.00
20145;BME280;10233;50.814;6.590;2023-04-26T00:24:54;100522.84;;;6.09;100.00
20145;BME280;10233;50.814;6.590;2023-04-26T00:25:56;100523.84;;;6.08;100.00
20145;BME280;10233;50.814;6.590;2023-04-26T00:26:57;100521.69;;;6.03;100.00
20145;BME280;10233;50.814;6.590;2023-04-26T00:27:59;100517.41;;;6.02;100.00
20145;BME280;10233;50.814;6.590;2023-04-26T00:29:03;100523.31;;;6.04;100.00
20145;BME280;10233;50.814;6.590;2023-04-26T00:30:04;100521.69;;;6.03;100.00
20145;BME280;10233;50.814;6.590;2023-04-26T00:31:05;100519.72;;;6.05;100.00
20145;BME280;10233;50.814;6.590;2023-04-26T00:32:06;100512.44;;;6.07;100.00
20145;BME280;10233;50.814;6.590;2023-04-26T00:33:07;100517.72;;;6.07;100.00
20145;BME280;10233;50.814;6.590;2023-04-26T00:34:07;100512.75;;;6.12;100.00
20145;BME280;10233;50.814;6.590;2023-04-26T00:35:08;100510.44;;;6.09;100.00
20145;BME280;10233;50.814;6.590;2023-04-26T00:36:09;100509.16;;;6.05;100.00
20145;BME280;10233;50.814;6.590;2023-04-26T00:37:10;100506.31;;;6.07;100.00
20145;BME280;10233;50.814;6.590;2023-04-26T00:38:10;100512.75;;;6.04;100.00
20145;BME280;10233;50.814;6.590;2023-04-26T00:39:11;100513.75;;;6.03;100.00
20145;BME280;10233;50.814;6.590;2023-04-26T00:40:12;100513.13;;;6.01;100.00
20145;BME280;10233;50.814;6.590;2023-04-26T00:41:13;100513.59;;;5.97;100.00
20145;BME280;10233;50.814;6.590;2023-04-26T00:42:14;100514.28;;;5.99;100.00
20145;BME280;10233;50.814;6.590;2023-04-26T00:43:15;100510.00;;;5.98;100.00
20145;BME280;10233;50.814;6.590;2023-04-26T00:44:16;100508.66;;;5.94;100.00
20145;BME280;10233;50.814;6.590;2023-04-26T00:45:16;100507.84;;;5.93;100.00
20145;BME280;10233;50.814;6.590;2023-04-26T00:46:17;100507.19;;;5.91;100.00
20145;BME280;10233;50.814;6.590;2023-04-26T00:47:18;100512.31;;;5.93;100.00
20145;BME280;10233;50.814;6.590;2023-04-26T00:48:19;100513.25;;;5.92;100.00
20145;BME280;10233;50.814;6.590;2023-04-26T00:49:23;100504.22;;;5.86;100.00
20145;BME280;10233;50.814;6.590;2023-04-26T00:50:24;100514.56;;;5.88;100.00
20145;BME280;10233;50.814;6.590;2023-04-26T00:51:25;100505.84;;;5.87;100.00
20145;BME280;10233;50.814;6.590;2023-04-26T00:52:26;100507.50;;;5.88;100.00
20145;BME280;10233;50.814;6.590;2023-04-26T00:53:28;100510.66;;;5.84;100.00
20145;BME280;10233;50.814;6.590;2023-04-26T00:54:30;100515.56;;;5.87;100.00
20145;BME280;10233;50.814;6.590;2023-04-26T00:55:31;100505.84;;;5.87;100.00
20145;BME280;10233;50.814;6.590;2023-04-26T00:56:32;100510.13;;;5.80;100.00
20145;BME280;10233;50.814;6.590;2023-04-26T00:57:34;100509.28;;;5.80;100.00
20145;BME280;10233;50.814;6.590;2023-04-26T00:58:36;100506.53;;;5.81;100.00
20145;BME280;10233;50.814;6.590;2023-04-26T00:59:36;100510.28;;;5.79;100.00
20145;BME280;10233;50.814;6.590;2023-04-26T01:00:37;100513.09;;;5.77;100.00
20145;BME280;10233;50.814;6.590;2023-04-26T01:01:37;100502.38;;;5.79;100.00
20145;BME280;10233;50.814;6.590;2023-04-26T01:02:39;100512.09;;;5.78;100.00
20145;BME280;10233;50.814;6.590;2023-04-26T01:03:40;100509.94;;;5.74;100.00
20145;BME280;10233;50.814;6.590;2023-04-26T01:04:43;100501.84;;;5.75;100.00
20145;BME280;10233;50.814;6.590;2023-04-26T01:05:45;100509.75;;;5.75;100.00
20145;BME280;10233;50.814;6.590;2023-04-26T01:06:46;100504.34;;;5.77;100.00
20145;BME280;10233;50.814;6.590;2023-04-26T01:07:46;100512.06;;;5.70;100.00
20145;BME280;10233;50.814;6.590;2023-04-26T01:08:49;100516.88;;;5.75;100.00
20145;BME280;10233;50.814;6.590;2023-04-26T01:09:51;100512.41;;;5.75;100.00
20145;BME280;10233;50.814;6.590;2023-04-26T01:10:52;100513.56;;;5.73;100.00
20145;BME280;10233;50.814;6.590;2023-04-26T01:11:54;100515.53;;;5.71;100.00
20145;BME280;10233;50.814;6.590;2023-04-26T01:12:57;100513.25;;;5.76;100.00
20145;BME280;10233;50.814;6.590;2023-04-26T01:14:04;100517.88;;;5.74;100.00
20145;BME280;10233;50.814;6.590;2023-04-26T01:15:05;100519.81;;;5.72;100.00
20145;BME280;10233;50.814;6.590;2023-04-26T01:16:07;100514.72;;;5.70;100.00
20145;BME280;10233;50.814;6.590;2023-04-26T01:17:07;100515.53;;;5.71;100.00
20145;BME280;10233;50.814;6.590;2023-04-26T01:18:08;100512.75;;;5.72;100.00
20145;BME280;10233;50.814;6.590;2023-04-26T01:19:09;100513.75;;;5.71;100.00
20145;BME280;10233;50.814;6.590;2023-04-26T01:20:12;100513.06;;;5.69;100.00
20145;BME280;10233;50.814;6.590;2023-04-26T01:21:24;100516.06;;;5.66;100.00
20145;BME280;10233;50.814;6.590;2023-04-26T01:22:24;100508.94;;;5.67;100.00
20145;BME280;10233;50.814;6.590;2023-04-26T01:23:25;100510.09;;;5.64;100.00
20145;BME280;10233;50.814;6.590;2023-04-26T01:24:26;100518.69;;;5.66;100.00
20145;BME280;10233;50.814;6.590;2023-04-26T01:25:27;100515.84;;;5.68;100.00
20145;BME280;10233;50.814;6.590;2023-04-26T01:26:27;100520.31;;;5.67;100.00
20145;BME280;10233;50.814;6.590;2023-04-26T01:27:29;100516.69;;;5.68;100.00
20145;BME280;10233;50.814;6.590;2023-04-26T01:28:30;100520.31;;;5.67;100.00
20145;BME280;10233;50.814;6.590;2023-04-26T01:29:30;100525.91;;;5.64;100.00
20145;BME280;10233;50.814;6.590;2023-04-26T01:30:31;100525.75;;;5.66;100.00
20145;BME280;10233;50.814;6.590;2023-04-26T01:31:32;100519.00;;;5.63;100.00
20145;BME280;10233;50.814;6.590;2023-04-26T01:32:32;100522.13;;;5.59;100.00
20145;BME280;10233;50.814;6.590;2023-04-26T01:33:34;100520.47;;;5.58;100.00
20145;BME280;10233;50.814;6.590;2023-04-26T01:34:34;100523.59;;;5.53;100.00
20145;BME280;10233;50.814;6.590;2023-04-26T01:35:36;100519.47;;;5.51;100.00
20145;BME280;10233;50.814;6.590;2023-04-26T01:36:37;100517.50;;;5.53;100.00
20145;BME280;10233;50.814;6.590;2023-04-26T01:37:37;100524.75;;;5.51;100.00
20145;BME280;10233;50.814;6.590;2023-04-26T01:38:38;100512.56;;;5.50;100.00
20145;BME280;10233;50.814;6.590;2023-04-26T01:39:39;100520.63;;;5.48;100.00
20145;BME280;10233;50.814;6.590;2023-04-26T01:40:39;100511.56;;;5.51;100.00
20145;BME280;10233;50.814;6.590;2023-04-26T01:41:42;100510.25;;;5.47;100.00
20145;BME280;10233;50.814;6.590;2023-04-26T01:42:43;100513.03;;;5.45;100.00
20145;BME280;10233;50.814;6.590;2023-04-26T01:43:46;100514.03;;;5.44;100.00
20145;BME280;10233;50.814;6.590;2023-04-26T01:44:47;100508.25;;;5.41;100.00
20145;BME280;10233;50.814;6.590;2023-04-26T01:45:47;100514.19;;;5.43;100.00
20145;BME280;10233;50.814;6.590;2023-04-26T01:47:03;100508.41;;;5.39;100.00
20145;BME280;10233;50.814;6.590;2023-04-26T01:48:04;100504.94;;;5.39;100.00
20145;BME280;10233;50.814;6.590;2023-04-26T01:49:06;100508.25;;;5.41;100.00
20145;BME280;10233;50.814;6.590;2023-04-26T01:50:07;100511.22;;;5.38;100.00
20145;BME280;10233;50.814;6.590;2023-04-26T01:51:07;100511.38;;;5.36;100.00
20145;BME280;10233;50.814;6.590;2023-04-26T01:52:08;100513.38;;;5.42;100.00
20145;BME280;10233;50.814;6.590;2023-04-26T01:53:09;100511.06;;;5.39;100.00
20145;BME280;10233;50.814;6.590;2023-04-26T01:54:09;100511.91;;;5.40;100.00
20145;BME280;10233;50.814;6.590;2023-04-26T01:55:10;100508.25;;;5.41;100.00
20145;BME280;10233;50.814;6.590;2023-04-26T01:56:10;100512.84;;;5.39;100.00
20145;BME280;10233;50.814;6.590;2023-04-26T01:57:11;100521.75;;;5.38;100.00
20145;BME280;10233;50.814;6.590;2023-04-26T01:58:12;100520.41;;;5.34;100.00
20145;BME280;10233;50.814;6.590;2023-04-26T01:59:12;100520.09;;;5.29;100.00
20145;BME280;10233;50.814;6.590;2023-04-26T02:00:13;100516.31;;;5.23;100.00
20145;BME280;10233;50.814;6.590;2023-04-26T02:01:13;100517.94;;;5.24;100.00
20145;BME280;10233;50.814;6.590;2023-04-26T02:02:16;100514.47;;;5.16;100.00
20145;BME280;10233;50.814;6.590;2023-04-26T02:03:16;100516.59;;;5.12;100.00
20145;BME280;10233;50.814;6.590;2023-04-26T02:04:17;100510.34;;;5.13;100.00
20145;BME280;10233;50.814;6.590;2023-04-26T02:05:18;100518.84;;;4.99;100.00
20145;BME280;10233;50.814;6.590;2023-04-26T02:06:19;100514.72;;;4.97;100.00
20145;BME280;10233;50.814;6.590;2023-04-26T02:07:20;100512.56;;;4.92;100.00
20145;BME280;10233;50.814;6.590;2023-04-26T02:08:20;100517.81;;;4.92;100.00
20145;BME280;10233;50.814;6.590;2023-04-26T02:09:21;100520.81;;;4.89;100.00
20145;BME280;10233;50.814;6.590;2023-04-26T02:10:22;100512.91;;;4.89;100.00
20145;BME280;10233;50.814;6.590;2023-04-26T02:11:22;100515.38;;;4.91;100.00
20145;BME280;10233;50.814;6.590;2023-04-26T02:12:25;100516.53;;;4.88;100.00
20145;BME280;10233;50.814;6.590;2023-04-26T02:13:25;100523.09;;;4.84;100.00
20145;BME280;10233;50.814;6.590;2023-04-26T02:14:26;100511.56;;;4.85;100.00
20145;BME280;10233;50.814;6.590;2023-04-26T02:15:26;100523.38;;;4.81;100.00
20145;BME280;10233;50.814;6.590;2023-04-26T02:16:27;100509.59;;;4.87;100.00
20145;BME280;10233;50.814;6.590;2023-04-26T02:17:28;100504.66;;;4.84;100.00
20145;BME280;10233;50.814;6.590;2023-04-26T02:18:28;100512.69;;;4.83;100.00
20145;BME280;10233;50.814;6.590;2023-04-26T02:19:29;100512.69;;;4.83;100.00
20145;BME280;10233;50.814;6.590;2023-04-26T02:20:30;100509.56;;;4.79;100.00
20145;BME280;10233;50.814;6.590;2023-04-26T02:21:30;100512.84;;;4.81;100.00
20145;BME280;10233;50.814;6.590;2023-04-26T02:22:31;100510.22;;;4.81;100.00
20145;BME280;10233;50.814;6.590;2023-04-26T02:23:31;100511.69;;;4.76;100.00
20145;BME280;10233;50.814;6.590;2023-04-26T02:24:32;100509.38;;;4.73;100.00
20145;BME280;10233;50.814;6.590;2023-04-26T02:25:32;100515.28;;;4.75;100.00
20145;BME280;10233;50.814;6.590;2023-04-26T02:26:33;100516.75;;;4.69;100.00
20145;BME280;10233;50.814;6.590;2023-04-26T02:27:35;100510.50;;;4.70;100.00
20145;BME280;10233;50.814;6.590;2023-04-26T02:28:36;100507.88;;;4.70;100.00
20145;BME280;10233;50.814;6.590;2023-04-26T02:29:37;100517.41;;;4.71;100.00
20145;BME280;10233;50.814;6.590;2023-04-26T02:30:38;100506.59;;;4.74;100.00
20145;BME280;10233;50.814;6.590;2023-04-26T02:31:39;100512.00;;;4.73;100.00
20145;BME280;10233;50.814;6.590;2023-04-26T02:32:40;100503.25;;;4.64;100.00
20145;BME280;10233;50.814;6.590;2023-04-26T02:33:40;100510.66;;;4.69;100.00
20145;BME280;10233;50.814;6.590;2023-04-26T02:34:41;100508.88;;;4.69;100.00
20145;BME280;10233;50.814;6.590;2023-04-26T02:35:42;100513.28;;;4.69;100.00
20145;BME280;10233;50.814;6.590;2023-04-26T02:36:44;100515.63;;;4.72;100.00
20145;BME280;10233;50.814;6.590;2023-04-26T02:37:48;100511.50;;;4.69;100.00
20145;BME280;10233;50.814;6.590;2023-04-26T02:38:52;100505.19;;;4.62;100.00
20145;BME280;10233;50.814;6.590;2023-04-26T02:39:53;100512.09;;;4.63;100.00
20145;BME280;10233;50.814;6.590;2023-04-26T02:40:57;100498.28;;;4.61;100.00
20145;BME280;10233;50.814;6.590;2023-04-26T02:41:58;100507.16;;;4.60;100.00
20145;BME280;10233;50.814;6.590;2023-04-26T02:42:59;100516.88;;;4.60;100.00
20145;BME280;10233;50.814;6.590;2023-04-26T02:44:00;100516.88;;;4.60;100.00
20145;BME280;10233;50.814;6.590;2023-04-26T02:45:01;100514.56;;;4.57;100.00
20145;BME280;10233;50.814;6.590;2023-04-26T02:46:01;100521.31;;;4.59;100.00
20145;BME280;10233;50.814;6.590;2023-04-26T02:47:04;100521.94;;;4.53;100.00
20145;BME280;10233;50.814;6.590;2023-04-26T02:48:05;100519.16;;;4.55;100.00
20145;BME280;10233;50.814;6.590;2023-04-26T02:49:05;100522.91;;;4.52;100.00
20145;BME280;10233;50.814;6.590;2023-04-26T02:50:07;100521.13;;;4.53;100.00
20145;BME280;10233;50.814;6.590;2023-04-26T02:51:09;100520.28;;;4.52;100.00
20145;BME280;10233;50.814;6.590;2023-04-26T02:52:09;100511.41;;;4.53;100.00
20145;BME280;10233;50.814;6.590;2023-04-26T02:53:11;100515.69;;;4.54;100.00
20145;BME280;10233;50.814;6.590;2023-04-26T02:54:12;100519.00;;;4.56;100.00
20145;BME280;10233;50.814;6.590;2023-04-26T02:55:13;100508.31;;;4.58;100.00
20145;BME280;10233;50.814;6.590;2023-04-26T02:56:14;100511.94;;;4.57;100.00
20145;BME280;10233;50.814;6.590;2023-04-26T02:57:14;100506.13;;;4.53;100.00
20145;BME280;10233;50.814;6.590;2023-04-26T02:58:15;100504.34;;;4.54;100.00
20145;BME280;10233;50.814;6.590;2023-04-26T02:59:18;100509.31;;;4.57;100.00
20145;BME280;10233;50.814;6.590;2023-04-26T03:00:19;100501.06;;;4.60;100.00
20145;BME280;10233;50.814;6.590;2023-04-26T03:01:19;100496.66;;;4.60;100.00
20145;BME280;10233;50.814;6.590;2023-04-26T03:02:20;100504.38;;;4.62;100.00
20145;BME280;10233;50.814;6.590;2023-04-26T03:03:21;100497.44;;;4.61;100.00
20145;BME280;10233;50.814;6.590;2023-04-26T03:04:22;100501.91;;;4.60;100.00
20145;BME280;10233;50.814;6.590;2023-04-26T03:05:22;100494.66;;;4.62;100.00
20145;BME280;10233;50.814;6.590;2023-04-26T03:06:23;100490.09;;;4.72;100.00
20145;BME280;10233;50.814;6.590;2023-04-26T03:07:23;100487.28;;;4.66;100.00
20145;BME280;10233;50.814;6.590;2023-04-26T03:08:24;100495.34;;;4.64;100.00
20145;BME280;10233;50.814;6.590;2023-04-26T03:09:24;100485.19;;;4.69;100.00
20145;BME280;10233;50.814;6.590;2023-04-26T03:10:26;100494.81;;;4.61;100.00
20145;BME280;10233;50.814;6.590;2023-04-26T03:11:26;100487.47;;;4.64;100.00
20145;BME280;10233;50.814;6.590;2023-04-26T03:12:27;100491.38;;;4.60;100.00
20145;BME280;10233;50.814;6.590;2023-04-26T03:13:27;100488.91;;;4.59;100.00
20145;BME280;10233;50.814;6.590;2023-04-26T03:14:29;100491.53;;;4.59;100.00
20145;BME280;10233;50.814;6.590;2023-04-26T03:15:30;100490.69;;;4.58;100.00
20145;BME280;10233;50.814;6.590;2023-04-26T03:16:40;100488.03;;;4.50;100.00
20145;BME280;10233;50.814;6.590;2023-04-26T03:17:41;100490.34;;;4.53;100.00
20145;BME280;10233;50.814;6.590;2023-04-26T03:18:42;100484.56;;;4.50;100.00
20145;BME280;10233;50.814;6.590;2023-04-26T03:19:43;100489.69;;;4.51;100.00
20145;BME280;10233;50.814;6.590;2023-04-26T03:20:45;100485.56;;;4.49;100.00
20145;BME280;10233;50.814;6.590;2023-04-26T03:21:46;100485.25;;;4.52;100.00
20145;BME280;10233;50.814;6.590;2023-04-26T03:22:47;100485.41;;;4.50;100.00
20145;BME280;10233;50.814;6.590;2023-04-26T03:23:47;100482.09;;;4.48;100.00
20145;BME280;10233;50.814;6.590;2023-04-26T03:24:50;100486.75;;;4.54;100.00
20145;BME280;10233;50.814;6.590;2023-04-26T03:25:51;100492.63;;;4.48;100.00
20145;BME280;10233;50.814;6.590;2023-04-26T03:26:52;100478.81;;;4.46;100.00
20145;BME280;10233;50.814;6.590;2023-04-26T03:27:53;100483.72;;;4.41;100.00
20145;BME280;10233;50.814;6.590;2023-04-26T03:28:56;100482.06;;;4.40;100.00
20145;BME280;10233;50.814;6.590;2023-04-26T03:29:56;100482.38;;;4.37;100.00
20145;BME280;10233;50.814;6.590;2023-04-26T03:30:57;100480.88;;;4.35;100.00
20145;BME280;10233;50.814;6.590;2023-04-26T03:31:58;100481.72;;;4.35;100.00
20145;BME280;10233;50.814;6.590;2023-04-26T03:32:59;100470.34;;;4.35;100.00
20145;BME280;10233;50.814;6.590;2023-04-26T03:34:00;100477.59;;;4.33;100.00
20145;BME280;10233;50.814;6.590;2023-04-26T03:35:00;100482.16;;;4.31;100.00
20145;BME280;10233;50.814;6.590;2023-04-26T03:36:02;100481.38;;;4.30;100.00
20145;BME280;10233;50.814;6.590;2023-04-26T03:37:02;100478.41;;;4.33;100.00
20145;BME280;10233;50.814;6.590;2023-04-26T03:38:03;100478.25;;;4.35;100.00
20145;BME280;10233;50.814;6.590;2023-04-26T03:39:05;100481.88;;;4.34;100.00
20145;BME280;10233;50.814;6.590;2023-04-26T03:40:07;100476.75;;;4.32;100.00
20145;BME280;10233;50.814;6.590;2023-04-26T03:41:08;100470.84;;;4.30;100.00
20145;BME280;10233;50.814;6.590;2023-04-26T03:42:09;100476.47;;;4.35;100.00
20145;BME280;10233;50.814;6.590;2023-04-26T03:43:09;100480.06;;;4.34;100.00
20145;BME280;10233;50.814;6.590;2023-04-26T03:44:12;100477.59;;;4.33;100.00
20145;BME280;10233;50.814;6.590;2023-04-26T03:45:13;100480.06;;;4.34;100.00
20145;BME280;10233;50.814;6.590;2023-04-26T03:46:14;100479.91;;;4.36;100.00
20145;BME280;10233;50.814;6.590;2023-04-26T03:47:15;100479.09;;;4.35;100.00
20145;BME280;10233;50.814;6.590;2023-04-26T03:48:15;100474.47;;;4.37;100.00
20145;BME280;10233;50.814;6.590;2023-04-26T03:49:16;100481.03;;;4.33;100.00
20145;BME280;10233;50.814;6.590;2023-04-26T03:50:18;100483.66;;;4.33;100.00
20145;BME280;10233;50.814;6.590;2023-04-26T03:51:20;100482.31;;;4.29;100.00
20145;BME280;10233;50.814;6.590;2023-04-26T03:52:21;100484.66;;;4.32;100.00
20145;BME280;10233;50.814;6.590;2023-04-26T03:53:23;100487.28;;;4.32;100.00
20145;BME280;10233;50.814;6.590;2023-04-26T03:54:23;100484.50;;;4.34;100.00
20145;BME280;10233;50.814;6.590;2023-04-26T03:55:24;100493.88;;;4.36;100.00
20145;BME280;10233;50.814;6.590;2023-04-26T03:56:25;100484.66;;;4.32;100.00
20145;BME280;10233;50.814;6.590;2023-04-26T03:57:26;100493.81;;;4.28;100.00
20145;BME280;10233;50.814;6.590;2023-04-26T03:58:28;100484.59;;;4.24;100.00
20145;BME280;10233;50.814;6.590;2023-04-26T03:59:29;100493.63;;;4.22;100.00
20145;BME280;10233;50.814;6.590;2023-04-26T04:00:29;100489.50;;;4.19;100.00
20145;BME280;10233;50.814;6.590;2023-04-26T04:01:30;100488.19;;;4.15;100.00
20145;BME280;10233;50.814;6.590;2023-04-26T04:02:31;100490.81;;;4.15;100.00
20145;BME280;10233;50.814;6.590;2023-04-26T04:03:32;100496.06;;;4.15;100.00
20145;BME280;10233;50.814;6.590;2023-04-26T04:04:33;100491.25;;;4.11;100.00
20145;BME280;10233;50.814;6.590;2023-04-26T04:05:34;100489.47;;;4.11;100.00
20145;BME280;10233;50.814;6.590;2023-04-26T04:06:34;100491.59;;;4.08;100.00
20145;BME280;10233;50.814;6.590;2023-04-26T04:07:35;100487.97;;;4.09;100.00
20145;BME280;10233;50.814;6.590;2023-04-26T04:08:36;100481.72;;;4.10;100.00
20145;BME280;10233;50.814;6.590;2023-04-26T04:09:37;100483.84;;;4.06;100.00
20145;BME280;10233;50.814;6.590;2023-04-26T04:10:38;100483.50;;;4.09;100.00
20145;BME280;10233;50.814;6.590;2023-04-26T04:11:38;100485.34;;;4.09;100.00
20145;BME280;10233;50.814;6.590;2023-04-26T04:12:39;100489.97;;;4.15;100.00
20145;BME280;10233;50.814;6.590;2023-04-26T04:13:39;100497.03;;;4.14;100.00
20145;BME280;10233;50.814;6.590;2023-04-26T04:14:40;100492.44;;;4.16;100.00
20145;BME280;10233;50.814;6.590;2023-04-26T04:15:40;100495.38;;;4.13;100.00
20145;BME280;10233;50.814;6.590;2023-04-26T04:16:41;100490.81;;;4.15;100.00
20145;BME280;10233;50.814;6.590;2023-04-26T04:17:41;100494.09;;;4.17;100.00
20145;BME280;10233;50.814;6.590;2023-04-26T04:18:42;100497.75;;;4.24;100.00
20145;BME280;10233;50.814;6.590;2023-04-26T04:19:43;100497.75;;;4.24;100.00
20145;BME280;10233;50.814;6.590;2023-04-26T04:20:44;100504.47;;;4.19;100.00
20145;BME280;10233;50.814;6.590;2023-04-26T04:21:45;100501.16;;;4.17;100.00
20145;BME280;10233;50.814;6.590;2023-04-26T04:22:46;100502.00;;;4.17;100.00
20145;BME280;10233;50.814;6.590;2023-04-26T04:23:46;100492.59;;;4.15;100.00
20145;BME280;10233;50.814;6.590;2023-04-26T04:24:47;100501.00;;;4.18;100.00
20145;BME280;10233;50.814;6.590;2023-04-26T04:25:48;100496.94;;;4.24;100.00
20145;BME280;10233;50.814;6.590;2023-04-26T04:26:49;100494.75;;;4.19;100.00
20145;BME280;10233;50.814;6.590;2023-04-26T04:27:49;100500.38;;;4.24;100.00
20145;BME280;10233;50.814;6.590;2023-04-26T04:28:51;100499.25;;;4.27;100.00
20145;BME280;10233;50.814;6.590;2023-04-26T04:29:52;100500.38;;;4.24;100.00
20145;BME280;10233;50.814;6.590;2023-04-26T04:30:54;100502.06;;;4.25;100.00
20145;BME280;10233;50.814;6.590;2023-04-26T04:31:57;100498.59;;;4.25;100.00
20145;BME280;10233;50.814;6.590;2023-04-26T04:32:57;100497.16;;;4.30;100.00
20145;BME280;10233;50.814;6.590;2023-04-26T04:33:59;100496.81;;;4.33;100.00
20145;BME280;10233;50.814;6.590;2023-04-26T04:35:00;100499.44;;;4.33;100.00
20145;BME280;10233;50.814;6.590;2023-04-26T04:36:00;100505.06;;;4.38;100.00
20145;BME280;10233;50.814;6.590;2023-04-26T04:37:10;100509.19;;;4.41;100.00
20145;BME280;10233;50.814;6.590;2023-04-26T04:38:11;100500.13;;;4.35;100.00
20145;BME280;10233;50.814;6.590;2023-04-26T04:39:12;100502.44;;;4.38;100.00
20145;BME280;10233;50.814;6.590;2023-04-26T04:40:15;100500.69;;;4.47;100.00
20145;BME280;10233;50.814;6.590;2023-04-26T04:41:18;100500.38;;;4.50;100.00
20145;BME280;10233;50.814;6.590;2023-04-26T04:42:23;100505.63;;;4.50;100.00
20145;BME280;10233;50.814;6.590;2023-04-26T04:43:24;100506.88;;;4.38;100.00
20145;BME280;10233;50.814;6.590;2023-04-26T04:44:24;100507.97;;;4.27;100.00
20145;BME280;10233;50.814;6.590;2023-04-26T04:45:27;100499.94;;;4.29;100.00
20145;BME280;10233;50.814;6.590;2023-04-26T04:46:30;100506.22;;;4.36;100.00
20145;BME280;10233;50.814;6.590;2023-04-26T04:47:30;100510.91;;;4.24;100.00
20145;BME280;10233;50.814;6.590;2023-04-26T04:48:31;100504.50;;;4.27;100.00
20145;BME280;10233;50.814;6.590;2023-04-26T04:49:33;100511.06;;;4.23;100.00
20145;BME280;10233;50.814;6.590;2023-04-26T04:50:34;100512.56;;;4.25;100.00
20145;BME280;10233;50.814;6.590;2023-04-26T04:51:38;100516.06;;;4.08;100.00
20145;BME280;10233;50.814;6.590;2023-04-26T04:52:39;100516.75;;;4.10;100.00
20145;BME280;10233;50.814;6.590;2023-04-26T04:53:40;100513.84;;;4.21;100.00
20145;BME280;10233;50.814;6.590;2023-04-26T04:54:40;100516.34;;;4.23;100.00
20145;BME280;10233;50.814;6.590;2023-04-26T04:55:42;100518.78;;;4.24;100.00
20145;BME280;10233;50.814;6.590;2023-04-26T04:56:52;100514.56;;;4.31;100.00
20145;BME280;10233;50.814;6.590;2023-04-26T04:57:53;100517.50;;;4.28;100.00
20145;BME280;10233;50.814;6.590;2023-04-26T04:58:53;100516.22;;;4.32;100.00
20145;BME280;10233;50.814;6.590;2023-04-26T04:59:55;100519.34;;;4.36;100.00
20145;BME280;10233;50.814;6.590;2023-04-26T05:00:56;100520.72;;;4.40;100.00
20145;BME280;10233;50.814;6.590;2023-04-26T05:02:02;100524.81;;;4.34;100.00
20145;BME280;10233;50.814;6.590;2023-04-26T05:03:03;100520.06;;;4.46;100.00
20145;BME280;10233;50.814;6.590;2023-04-26T05:04:05;100530.44;;;4.47;100.00
20145;BME280;10233;50.814;6.590;2023-04-26T05:05:07;100518.94;;;4.48;100.00
20145;BME280;10233;50.814;6.590;2023-04-26T05:06:08;100522.72;;;4.46;100.00
20145;BME280;10233;50.814;6.590;2023-04-26T05:07:09;100519.50;;;4.60;100.00
20145;BME280;10233;50.814;6.590;2023-04-26T05:08:12;100525.91;;;4.57;100.00
20145;BME280;10233;50.814;6.590;2023-04-26T05:09:12;100526.25;;;4.62;100.00
20145;BME280;10233;50.814;6.590;2023-04-26T05:10:14;100520.88;;;4.72;100.00
20145;BME280;10233;50.814;6.590;2023-04-26T05:11:15;100527.31;;;4.77;100.00
20145;BME280;10233;50.814;6.590;2023-04-26T05:12:16;100523.19;;;4.75;100.00
20145;BME280;10233;50.814;6.590;2023-04-26T05:13:16;100523.38;;;4.81;100.00
20145;BME280;10233;50.814;6.590;2023-04-26T05:14:18;100524.53;;;4.79;100.00
20145;BME280;10233;50.814;6.590;2023-04-26T05:15:18;100517.81;;;4.92;100.00
20145;BME280;10233;50.814;6.590;2023-04-26T05:16:19;100523.63;;;4.96;100.00
20145;BME280;10233;50.814;6.590;2023-04-26T05:17:19;100527.75;;;4.98;100.00
20145;BME280;10233;50.814;6.590;2023-04-26T05:18:20;100524.13;;;5.07;100.00
20145;BME280;10233;50.814;6.590;2023-04-26T05:19:21;100526.81;;;5.15;100.00
20145;BME280;10233;50.814;6.590;2023-04-26T05:20:21;100532.41;;;5.20;100.00